createdAt,value
2023-05-22T00:00:49.732Z,929.36
2023-05-22T00:01:50.549Z,929.36
2023-05-22T00:02:50.018Z,929.37
2023-05-22T00:03:49.646Z,929.37
2023-05-22T00:04:50.625Z,929.38
2023-05-22T00:05:50.282Z,929.38
2023-05-22T00:06:49.635Z,929.39
2023-05-22T00:07:50.292Z,929.38
2023-05-22T00:08:49.660Z,929.37
2023-05-22T00:09:49.583Z,929.37
2023-05-22T00:10:49.629Z,929.37
2023-05-22T00:11:49.896Z,929.36
2023-05-22T00:12:50.104Z,929.35
2023-05-22T00:13:49.594Z,929.34
2023-05-22T00:14:49.508Z,929.33
2023-05-22T00:15:49.921Z,929.32
2023-05-22T00:16:49.724Z,929.33
2023-05-22T00:17:50.050Z,929.33
2023-05-22T00:18:49.951Z,929.33
2023-05-22T00:19:49.857Z,929.33
2023-05-22T00:20:49.436Z,929.33
2023-05-22T00:21:49.433Z,929.33
2023-05-22T00:22:49.858Z,929.33
2023-05-22T00:23:49.966Z,929.34
2023-05-22T00:24:49.455Z,929.33
2023-05-22T00:25:49.377Z,929.32
2023-05-22T00:26:49.587Z,929.30
2023-05-22T00:27:49.376Z,929.29
2023-05-22T00:28:49.908Z,929.27
2023-05-22T00:29:49.797Z,929.26
2023-05-22T00:30:49.938Z,929.24
2023-05-22T00:31:49.346Z,929.22
2023-05-22T00:32:49.442Z,929.20
2023-05-22T00:33:49.457Z,929.19
2023-05-22T00:34:50.176Z,929.18
2023-05-22T00:35:49.347Z,929.18
2023-05-22T00:36:49.813Z,929.17
2023-05-22T00:37:49.337Z,929.18
2023-05-22T00:38:49.242Z,929.18
2023-05-22T00:39:49.273Z,929.19
2023-05-22T00:40:49.276Z,929.20
2023-05-22T00:41:49.573Z,929.20
2023-05-22T00:42:50.014Z,929.19
2023-05-22T00:43:49.223Z,929.18
2023-05-22T00:44:49.850Z,929.17
2023-05-22T00:45:49.637Z,929.14
2023-05-22T00:46:49.619Z,929.11
2023-05-22T00:47:49.218Z,929.09
2023-05-22T00:48:49.315Z,929.07
2023-05-22T00:49:49.709Z,929.05
2023-05-22T00:50:49.102Z,929.04
2023-05-22T00:51:49.547Z,929.04
2023-05-22T00:52:49.777Z,929.02
2023-05-22T00:53:49.103Z,929.02
2023-05-22T00:54:49.121Z,929.02
2023-05-22T00:55:49.125Z,929.04
2023-05-22T00:56:49.653Z,929.04
2023-05-22T00:57:49.142Z,929.05
2023-05-22T00:58:49.054Z,929.07
2023-05-22T00:59:49.037Z,929.07
2023-05-22T01:00:49.068Z,929.06
2023-05-22T01:01:49.504Z,929.05
2023-05-22T01:02:49.223Z,929.05
2023-05-22T01:03:49.187Z,929.05
2023-05-22T01:04:48.987Z,929.06
2023-05-22T01:05:49.198Z,929.08
2023-05-22T01:06:48.992Z,929.09
2023-05-22T01:07:48.987Z,929.11
2023-05-22T01:08:49.098Z,929.12
2023-05-22T01:09:49.158Z,929.13
2023-05-22T01:10:49.319Z,929.14
2023-05-22T01:11:50.088Z,929.15
2023-05-22T01:12:48.926Z,929.15
2023-05-22T01:13:48.936Z,929.15
2023-05-22T01:14:48.860Z,929.15
2023-05-22T01:15:48.923Z,929.16
2023-05-22T01:16:49.100Z,929.16
2023-05-22T01:17:48.884Z,929.17
2023-05-22T01:18:49.016Z,929.18
2023-05-22T01:19:49.094Z,929.20
2023-05-22T01:20:48.940Z,929.20
2023-05-22T01:21:48.834Z,929.21
2023-05-22T01:22:48.793Z,929.20
2023-05-22T01:23:49.115Z,929.20
2023-05-22T01:24:48.927Z,929.19
2023-05-22T01:25:48.837Z,929.18
2023-05-22T01:26:48.920Z,929.17
2023-05-22T01:27:48.847Z,929.17
2023-05-22T01:28:49.077Z,929.16
2023-05-22T01:29:48.743Z,929.17
2023-05-22T01:30:48.681Z,929.17
2023-05-22T01:31:48.828Z,929.16
2023-05-22T01:32:48.823Z,929.14
2023-05-22T01:33:48.801Z,929.11
2023-05-22T01:34:48.751Z,929.06
2023-05-22T01:35:48.697Z,929.03
2023-05-22T01:36:48.712Z,929.00
2023-05-22T01:37:48.676Z,928.99
2023-05-22T01:38:49.427Z,928.99
2023-05-22T01:39:48.619Z,929.01
2023-05-22T01:40:48.623Z,929.05
2023-05-22T01:41:48.616Z,929.10
2023-05-22T01:42:48.625Z,929.14
2023-05-22T01:43:48.636Z,929.18
2023-05-22T01:44:48.552Z,929.20
2023-05-22T01:45:48.557Z,929.21
2023-05-22T01:46:48.548Z,929.23
2023-05-22T01:47:48.778Z,929.24
2023-05-22T01:48:48.559Z,929.25
2023-05-22T01:49:48.560Z,929.25
2023-05-22T01:50:48.559Z,929.27
2023-05-22T01:51:48.492Z,929.26
2023-05-22T01:52:48.486Z,929.27
2023-05-22T01:53:48.479Z,929.28
2023-05-22T01:54:48.405Z,929.26
2023-05-22T01:55:48.409Z,929.25
2023-05-22T01:56:48.416Z,929.25
2023-05-22T01:57:48.416Z,929.25
2023-05-22T01:58:48.405Z,929.24
2023-05-22T01:59:48.448Z,929.24
2023-05-22T02:00:48.321Z,929.23
2023-05-22T02:01:48.359Z,929.21
2023-05-22T02:02:48.425Z,929.21
2023-05-22T02:03:48.513Z,929.19
2023-05-22T02:04:48.381Z,929.20
2023-05-22T02:05:48.353Z,929.22
2023-05-22T02:06:48.276Z,929.25
2023-05-22T02:07:48.303Z,929.29
2023-05-22T02:08:48.277Z,929.32
2023-05-22T02:09:48.292Z,929.35
2023-05-22T02:10:48.277Z,929.38
2023-05-22T02:11:48.322Z,929.40
2023-05-22T02:12:48.242Z,929.43
2023-05-22T02:13:48.232Z,929.44
2023-05-22T02:14:48.224Z,929.45
2023-05-22T02:15:48.246Z,929.45
2023-05-22T02:16:48.253Z,929.47
2023-05-22T02:17:48.260Z,929.48
2023-05-22T02:18:48.168Z,929.51
2023-05-22T02:19:48.173Z,929.52
2023-05-22T02:20:48.176Z,929.53
2023-05-22T02:21:48.173Z,929.52
2023-05-22T02:22:48.218Z,929.49
2023-05-22T02:23:48.100Z,929.46
2023-05-22T02:24:48.106Z,929.42
2023-05-22T02:25:48.096Z,929.38
2023-05-22T02:26:48.107Z,929.35
2023-05-22T02:27:48.093Z,929.32
2023-05-22T02:28:48.114Z,929.30
2023-05-22T02:29:48.041Z,929.27
2023-05-22T02:30:48.034Z,929.25
2023-05-22T02:31:48.063Z,929.21
2023-05-22T02:32:48.145Z,929.16
2023-05-22T02:33:48.659Z,929.14
2023-05-22T02:34:48.032Z,929.12
2023-05-22T02:35:47.961Z,929.11
2023-05-22T02:36:47.974Z,929.12
2023-05-22T02:37:47.975Z,929.12
2023-05-22T02:38:47.961Z,929.13
2023-05-22T02:39:47.985Z,929.13
2023-05-22T02:40:47.990Z,929.13
2023-05-22T02:41:47.914Z,929.11
2023-05-22T02:42:47.914Z,929.09
2023-05-22T02:43:47.890Z,929.06
2023-05-22T02:44:47.922Z,929.05
2023-05-22T02:45:47.896Z,929.04
2023-05-22T02:46:47.982Z,929.04
2023-05-22T02:47:47.864Z,929.04
2023-05-22T02:48:47.844Z,929.05
2023-05-22T02:49:47.851Z,929.07
2023-05-22T02:50:47.848Z,929.07
2023-05-22T02:51:48.004Z,929.09
2023-05-22T02:52:47.885Z,929.12
2023-05-22T02:53:47.787Z,929.15
2023-05-22T02:54:47.772Z,929.18
2023-05-22T02:55:47.787Z,929.19
2023-05-22T02:56:47.780Z,929.21
2023-05-22T02:57:47.813Z,929.21
2023-05-22T02:58:47.783Z,929.19
2023-05-22T02:59:47.723Z,929.19
2023-05-22T03:00:47.806Z,929.20
2023-05-22T03:01:47.757Z,929.22
2023-05-22T03:02:47.769Z,929.25
2023-05-22T03:03:47.802Z,929.29
2023-05-22T03:04:47.736Z,929.33
2023-05-22T03:05:47.643Z,929.35
2023-05-22T03:06:47.621Z,929.36
2023-05-22T03:07:48.758Z,929.35
2023-05-22T03:08:47.644Z,929.32
2023-05-22T03:09:47.589Z,929.30
2023-05-22T03:10:47.661Z,929.29
2023-05-22T03:11:47.580Z,929.28
2023-05-22T03:12:47.561Z,929.28
2023-05-22T03:13:47.576Z,929.29
2023-05-22T03:14:47.588Z,929.29
2023-05-22T03:15:47.606Z,929.31
2023-05-22T03:16:47.640Z,929.31
2023-05-22T03:17:47.583Z,929.32
2023-05-22T03:18:47.534Z,929.32
2023-05-22T03:19:47.488Z,929.31
2023-05-22T03:20:47.433Z,929.31
2023-05-22T03:21:47.428Z,929.32
2023-05-22T03:22:47.446Z,929.34
2023-05-22T03:23:47.464Z,929.37
2023-05-22T03:24:47.381Z,929.38
2023-05-22T03:25:47.371Z,929.38
2023-05-22T03:26:47.368Z,929.38
2023-05-22T03:27:47.371Z,929.37
2023-05-22T03:28:47.409Z,929.35
2023-05-22T03:29:47.371Z,929.34
2023-05-22T03:30:47.350Z,929.34
2023-05-22T03:31:47.312Z,929.35
2023-05-22T03:32:47.383Z,929.35
2023-05-22T03:33:47.362Z,929.35
2023-05-22T03:34:47.309Z,929.34
2023-05-22T03:35:47.336Z,929.34
2023-05-22T03:36:47.286Z,929.33
2023-05-22T03:37:47.315Z,929.33
2023-05-22T03:38:47.231Z,929.33
2023-05-22T03:39:47.261Z,929.34
2023-05-22T03:40:47.206Z,929.35
2023-05-22T03:41:47.173Z,929.35
2023-05-22T03:42:47.182Z,929.35
2023-05-22T03:43:47.196Z,929.34
2023-05-22T03:44:47.179Z,929.33
2023-05-22T03:45:47.196Z,929.32
2023-05-22T03:46:47.152Z,929.30
2023-05-22T03:47:47.168Z,929.31
2023-05-22T03:48:47.159Z,929.32
2023-05-22T03:49:47.142Z,929.34
2023-05-22T03:50:47.114Z,929.35
2023-05-22T03:51:47.137Z,929.36
2023-05-22T03:52:47.050Z,929.38
2023-05-22T03:53:47.080Z,929.41
2023-05-22T03:54:47.111Z,929.43
2023-05-22T03:55:47.051Z,929.45
2023-05-22T03:56:47.064Z,929.45
2023-05-22T03:57:47.077Z,929.47
2023-05-22T03:58:47.016Z,929.48
2023-05-22T03:59:47.027Z,929.49
2023-05-22T04:00:46.977Z,929.51
2023-05-22T04:01:46.997Z,929.53
2023-05-22T04:02:47.148Z,929.54
2023-05-22T04:03:46.954Z,929.55
2023-05-22T04:04:47.029Z,929.54
2023-05-22T04:05:46.964Z,929.53
2023-05-22T04:06:46.929Z,929.52
2023-05-22T04:07:46.979Z,929.51
2023-05-22T04:08:47.202Z,929.50
2023-05-22T04:09:46.897Z,929.51
2023-05-22T04:10:46.907Z,929.53
2023-05-22T04:11:46.897Z,929.55
2023-05-22T04:12:46.864Z,929.57
2023-05-22T04:13:46.871Z,929.56
2023-05-22T04:14:46.887Z,929.55
2023-05-22T04:15:47.131Z,929.54
2023-05-22T04:16:48.539Z,929.54
2023-05-22T04:17:46.876Z,929.55
2023-05-22T04:18:46.878Z,929.55
2023-05-22T04:19:47.118Z,929.55
2023-05-22T04:20:46.874Z,929.54
2023-05-22T04:21:46.813Z,929.55
2023-05-22T04:22:46.768Z,929.55
2023-05-22T04:23:46.773Z,929.57
2023-05-22T04:24:46.784Z,929.60
2023-05-22T04:25:46.789Z,929.62
2023-05-22T04:26:46.808Z,929.63
2023-05-22T04:27:46.760Z,929.63
2023-05-22T04:28:46.714Z,929.63
2023-05-22T04:29:46.766Z,929.62
2023-05-22T04:30:46.758Z,929.61
2023-05-22T04:31:46.786Z,929.60
2023-05-22T04:32:46.737Z,929.59
2023-05-22T04:33:46.744Z,929.58
2023-05-22T04:34:46.634Z,929.57
2023-05-22T04:35:46.651Z,929.56
2023-05-22T04:36:46.620Z,929.56
2023-05-22T04:37:46.594Z,929.56
2023-05-22T04:38:46.586Z,929.57
2023-05-22T04:39:46.678Z,929.59
2023-05-22T04:40:46.582Z,929.60
2023-05-22T04:41:46.587Z,929.61
2023-05-22T04:42:46.654Z,929.62
2023-05-22T04:43:46.558Z,929.62
2023-05-22T04:44:46.605Z,929.61
2023-05-22T04:45:46.505Z,929.60
2023-05-22T04:46:46.605Z,929.59
2023-05-22T04:47:46.558Z,929.59
2023-05-22T04:48:46.519Z,929.61
2023-05-22T04:49:46.542Z,929.63
2023-05-22T04:50:46.501Z,929.65
2023-05-22T04:51:46.677Z,929.68
2023-05-22T04:52:46.439Z,929.69
2023-05-22T04:53:46.476Z,929.69
2023-05-22T04:54:46.698Z,929.68
2023-05-22T04:55:46.462Z,929.66
2023-05-22T04:56:46.376Z,929.62
2023-05-22T04:57:46.698Z,929.60
2023-05-22T04:58:46.390Z,929.58
2023-05-22T04:59:46.420Z,929.56
2023-05-22T05:00:46.417Z,929.56
2023-05-22T05:01:46.500Z,929.57
2023-05-22T05:02:46.451Z,929.58
2023-05-22T05:03:46.386Z,929.59
2023-05-22T05:04:46.318Z,929.59
2023-05-22T05:05:46.368Z,929.59
2023-05-22T05:06:46.324Z,929.59
2023-05-22T05:07:47.175Z,929.58
2023-05-22T05:08:46.342Z,929.57
2023-05-22T05:09:46.261Z,929.55
2023-05-22T05:10:46.366Z,929.55
2023-05-22T05:11:46.288Z,929.53
2023-05-22T05:12:46.282Z,929.52
2023-05-22T05:13:46.301Z,929.50
2023-05-22T05:14:46.195Z,929.48
2023-05-22T05:15:46.210Z,929.44
2023-05-22T05:16:46.246Z,929.41
2023-05-22T05:17:46.863Z,929.39
2023-05-22T05:18:46.210Z,929.37
2023-05-22T05:19:46.206Z,929.37
2023-05-22T05:20:46.127Z,929.38
2023-05-22T05:21:46.137Z,929.40
2023-05-22T05:22:46.143Z,929.43
2023-05-22T05:23:46.148Z,929.45
2023-05-22T05:24:46.331Z,929.46
2023-05-22T05:25:46.142Z,929.46
2023-05-22T05:26:46.080Z,929.45
2023-05-22T05:27:46.083Z,929.44
2023-05-22T05:28:46.161Z,929.43
2023-05-22T05:29:46.078Z,929.42
2023-05-22T05:30:46.086Z,929.41
2023-05-22T05:31:46.151Z,929.41
2023-05-22T05:32:46.078Z,929.41
2023-05-22T05:33:46.012Z,929.43
2023-05-22T05:34:45.994Z,929.45
2023-05-22T05:35:46.044Z,929.48
2023-05-22T05:36:46.027Z,929.50
2023-05-22T05:37:45.942Z,929.50
2023-05-22T05:38:45.969Z,929.48
2023-05-22T05:39:45.930Z,929.44
2023-05-22T05:40:46.088Z,929.41
2023-05-22T05:41:45.955Z,929.39
2023-05-22T05:42:45.874Z,929.38
2023-05-22T05:43:45.894Z,929.38
2023-05-22T05:44:45.860Z,929.39
2023-05-22T05:45:45.995Z,929.39
2023-05-22T05:46:45.872Z,929.39
2023-05-22T05:47:45.918Z,929.39
2023-05-22T05:48:45.894Z,929.38
2023-05-22T05:49:45.809Z,929.37
2023-05-22T05:50:45.823Z,929.36
2023-05-22T05:51:45.832Z,929.35
2023-05-22T05:52:45.835Z,929.35
2023-05-22T05:53:45.816Z,929.35
2023-05-22T05:54:45.834Z,929.36
2023-05-22T05:55:45.766Z,929.36
2023-05-22T05:56:45.740Z,929.35
2023-05-22T05:57:45.749Z,929.34
2023-05-22T05:58:45.762Z,929.33
2023-05-22T05:59:45.756Z,929.31
2023-05-22T06:00:45.763Z,929.31
2023-05-22T06:01:45.666Z,929.30
2023-05-22T06:02:46.103Z,929.29
2023-05-22T06:03:45.856Z,929.28
2023-05-22T06:04:45.685Z,929.27
2023-05-22T06:05:45.760Z,929.26
2023-05-22T06:06:45.698Z,929.25
2023-05-22T06:07:45.620Z,929.25
2023-05-22T06:08:45.625Z,929.24
2023-05-22T06:09:45.655Z,929.23
2023-05-22T06:10:45.660Z,929.21
2023-05-22T06:11:45.748Z,929.21
2023-05-22T06:12:45.672Z,929.19
2023-05-22T06:13:45.579Z,929.19
2023-05-22T06:14:45.584Z,929.20
2023-05-22T06:15:45.585Z,929.21
2023-05-22T06:16:45.626Z,929.22
2023-05-22T06:17:45.650Z,929.23
2023-05-22T06:18:46.552Z,929.25
2023-05-22T06:19:45.495Z,929.26
2023-05-22T06:20:45.511Z,929.27
2023-05-22T06:21:45.500Z,929.27
2023-05-22T06:22:45.640Z,929.27
2023-05-22T06:23:45.439Z,929.26
2023-05-22T06:24:45.451Z,929.25
2023-05-22T06:25:45.457Z,929.23
2023-05-22T06:26:45.459Z,929.22
2023-05-22T06:27:45.477Z,929.20
2023-05-22T06:28:45.567Z,929.19
2023-05-22T06:29:45.473Z,929.18
2023-05-22T06:30:45.568Z,929.16
2023-05-22T06:31:45.480Z,929.17
2023-05-22T06:32:45.503Z,929.18
2023-05-22T06:33:45.599Z,929.19
2023-05-22T06:34:45.388Z,929.20
2023-05-22T06:35:45.439Z,929.21
2023-05-22T06:36:45.345Z,929.23
2023-05-22T06:37:45.345Z,929.23
2023-05-22T06:38:45.348Z,929.24
2023-05-22T06:39:46.369Z,929.25
2023-05-22T06:40:45.360Z,929.24
2023-05-22T06:41:45.370Z,929.24
2023-05-22T06:42:45.303Z,929.22
2023-05-22T06:43:45.266Z,929.21
2023-05-22T06:44:45.251Z,929.20
2023-05-22T06:45:45.457Z,929.19
2023-05-22T06:46:45.283Z,929.19
2023-05-22T06:47:45.334Z,929.19
2023-05-22T06:48:45.200Z,929.20
2023-05-22T06:49:45.205Z,929.21
2023-05-22T06:50:45.214Z,929.22
2023-05-22T06:51:45.226Z,929.22
2023-05-22T06:52:45.229Z,929.24
2023-05-22T06:53:45.214Z,929.25
2023-05-22T06:54:45.142Z,929.26
2023-05-22T06:55:45.160Z,929.26
2023-05-22T06:56:45.154Z,929.25
2023-05-22T06:57:45.160Z,929.24
2023-05-22T06:58:45.165Z,929.23
2023-05-22T06:59:45.069Z,929.21
2023-05-22T07:00:45.077Z,929.18
2023-05-22T07:01:45.187Z,929.15
2023-05-22T07:02:45.120Z,929.12
2023-05-22T07:03:45.100Z,929.11
2023-05-22T07:04:45.084Z,929.10
2023-05-22T07:05:45.075Z,929.10
2023-05-22T07:06:45.003Z,929.10
2023-05-22T07:07:44.979Z,929.11
2023-05-22T07:08:44.981Z,929.11
2023-05-22T07:09:45.124Z,929.11
2023-05-22T07:10:45.029Z,929.10
2023-05-22T07:11:44.928Z,929.08
2023-05-22T07:12:44.937Z,929.07
2023-05-22T07:13:44.947Z,929.06
2023-05-22T07:14:44.918Z,929.04
2023-05-22T07:15:46.557Z,929.03
2023-05-22T07:16:45.064Z,929.03
2023-05-22T07:17:45.012Z,929.03
2023-05-22T07:18:44.916Z,929.02
2023-05-22T07:19:44.906Z,929.02
2023-05-22T07:20:44.902Z,929.04
2023-05-22T07:21:44.894Z,929.07
2023-05-22T07:22:44.889Z,929.11
2023-05-22T07:23:44.811Z,929.14
2023-05-22T07:24:44.821Z,929.17
2023-05-22T07:25:44.825Z,929.18
2023-05-22T07:26:44.852Z,929.17
2023-05-22T07:27:44.907Z,929.15
2023-05-22T07:28:44.856Z,929.13
2023-05-22T07:29:44.754Z,929.13
2023-05-22T07:30:44.760Z,929.15
2023-05-22T07:31:44.886Z,929.16
2023-05-22T07:32:45.366Z,929.17
2023-05-22T07:33:44.785Z,929.19
2023-05-22T07:34:44.753Z,929.21
2023-05-22T07:35:44.683Z,929.25
2023-05-22T07:36:44.695Z,929.27
2023-05-22T07:37:44.701Z,929.29
2023-05-22T07:38:44.667Z,929.29
2023-05-22T07:39:44.825Z,929.27
2023-05-22T07:40:44.818Z,929.24
2023-05-22T07:41:44.620Z,929.21
2023-05-22T07:42:44.712Z,929.17
2023-05-22T07:43:44.620Z,929.15
2023-05-22T07:44:44.658Z,929.14
2023-05-22T07:45:44.893Z,929.12
2023-05-22T07:46:44.654Z,929.13
2023-05-22T07:47:44.617Z,929.13
2023-05-22T07:48:44.571Z,929.15
2023-05-22T07:49:44.541Z,929.16
2023-05-22T07:50:44.537Z,929.18
2023-05-22T07:51:45.315Z,929.20
2023-05-22T07:52:44.502Z,929.23
2023-05-22T07:53:44.505Z,929.25
2023-05-22T07:54:45.517Z,929.26
2023-05-22T07:55:44.472Z,929.26
2023-05-22T07:56:44.485Z,929.23
2023-05-22T07:57:44.854Z,929.22
2023-05-22T07:58:44.430Z,929.20
2023-05-22T07:59:44.405Z,929.18
2023-05-22T08:00:44.444Z,929.18
2023-05-22T08:01:44.407Z,929.18
2023-05-22T08:02:45.075Z,929.21
2023-05-22T08:03:44.608Z,929.24
2023-05-22T08:04:44.377Z,929.30
2023-05-22T08:05:44.384Z,929.36
2023-05-22T08:06:44.450Z,929.42
2023-05-22T08:07:44.340Z,929.48
2023-05-22T08:08:44.358Z,929.51
2023-05-22T08:09:45.304Z,929.53
2023-05-22T08:11:01.856Z,929.53
2023-05-22T08:11:44.279Z,929.53
2023-05-22T08:12:44.297Z,929.55
2023-05-22T08:13:44.308Z,929.59
2023-05-22T08:14:44.277Z,929.65
2023-05-22T08:15:44.301Z,929.70
2023-05-22T08:16:44.254Z,929.74
2023-05-22T08:17:44.273Z,929.78
2023-05-22T08:18:44.351Z,929.80
2023-05-22T08:19:44.322Z,929.81
2023-05-22T08:20:44.219Z,929.83
2023-05-22T08:21:45.050Z,929.85
2023-05-22T08:22:44.164Z,929.87
2023-05-22T08:23:44.170Z,929.90
2023-05-22T08:24:44.249Z,929.93
2023-05-22T08:25:44.160Z,929.97
2023-05-22T08:26:44.163Z,929.99
2023-05-22T08:27:44.181Z,930.00
2023-05-22T08:28:44.137Z,930.01
2023-05-22T08:29:44.133Z,930.02
2023-05-22T08:30:44.290Z,930.04
2023-05-22T08:31:44.153Z,930.06
2023-05-22T08:32:44.166Z,930.07
2023-05-22T08:33:44.173Z,930.09
2023-05-22T08:34:44.128Z,930.11
2023-05-22T08:35:44.038Z,930.14
2023-05-22T08:36:44.143Z,930.16
2023-05-22T08:37:44.042Z,930.18
2023-05-22T08:38:44.040Z,930.21
2023-05-22T08:39:44.905Z,930.22
2023-05-22T08:40:46.227Z,930.24
2023-05-22T08:41:43.958Z,930.25
2023-05-22T08:42:43.983Z,930.27
2023-05-22T08:43:43.959Z,930.29
2023-05-22T08:44:44.008Z,930.30
2023-05-22T08:45:44.006Z,930.30
2023-05-22T08:46:44.857Z,930.29
2023-05-22T08:47:44.002Z,930.27
2023-05-22T08:48:43.932Z,930.24
2023-05-22T08:49:43.907Z,930.20
2023-05-22T08:50:43.932Z,930.17
2023-05-22T08:51:43.928Z,930.16
2023-05-22T08:52:43.970Z,930.15
2023-05-22T08:53:43.929Z,930.15
2023-05-22T08:54:43.952Z,930.16
2023-05-22T08:55:43.948Z,930.17
2023-05-22T08:56:55.653Z,930.19
2023-05-22T08:57:43.875Z,930.20
2023-05-22T08:58:43.857Z,930.20
2023-05-22T08:59:43.866Z,930.20
2023-05-22T09:00:44.956Z,930.19
2023-05-22T09:01:44.149Z,930.19
2023-05-22T09:02:43.840Z,930.19
2023-05-22T09:03:43.798Z,930.18
2023-05-22T09:04:43.841Z,930.18
2023-05-22T09:05:43.826Z,930.18
2023-05-22T09:06:44.334Z,930.18
2023-05-22T09:07:43.758Z,930.19
2023-05-22T09:08:43.752Z,930.19
2023-05-22T09:09:43.764Z,930.18
2023-05-22T09:10:43.766Z,930.18
2023-05-22T09:11:43.876Z,930.18
2023-05-22T09:12:43.758Z,930.19
2023-05-22T09:13:43.669Z,930.20
2023-05-22T09:14:43.674Z,930.22
2023-05-22T09:15:43.670Z,930.24
2023-05-22T09:16:43.733Z,930.29
2023-05-22T09:17:44.452Z,930.32
2023-05-22T09:18:44.603Z,930.35
2023-05-22T09:19:43.641Z,930.37
2023-05-22T09:20:43.630Z,930.36
2023-05-22T09:21:43.537Z,930.33
2023-05-22T09:22:43.622Z,930.32
2023-05-22T09:23:43.534Z,930.33
2023-05-22T09:24:43.669Z,930.34
2023-05-22T09:25:43.584Z,930.36
2023-05-22T09:26:43.575Z,930.38
2023-05-22T09:27:43.559Z,930.41
2023-05-22T09:28:43.580Z,930.42
2023-05-22T09:29:43.468Z,930.43
2023-05-22T09:30:43.698Z,930.45
2023-05-22T09:31:43.809Z,930.45
2023-05-22T09:32:43.509Z,930.47
2023-05-22T09:33:43.493Z,930.48
2023-05-22T09:34:43.434Z,930.49
2023-05-22T09:35:43.437Z,930.51
2023-05-22T09:36:43.422Z,930.51
2023-05-22T09:37:43.421Z,930.52
2023-05-22T09:38:43.424Z,930.53
2023-05-22T09:39:43.443Z,930.55
2023-05-22T09:40:43.344Z,930.56
2023-05-22T09:41:43.378Z,930.58
2023-05-22T09:42:43.380Z,930.58
2023-05-22T09:43:43.677Z,930.59
2023-05-22T09:44:43.368Z,930.59
2023-05-22T09:45:43.372Z,930.59
2023-05-22T09:46:43.449Z,930.58
2023-05-22T09:47:43.400Z,930.59
2023-05-22T09:48:43.319Z,930.61
2023-05-22T09:49:43.269Z,930.63
2023-05-22T09:50:43.331Z,930.66
2023-05-22T09:51:43.239Z,930.70
2023-05-22T09:52:43.311Z,930.74
2023-05-22T09:53:43.218Z,930.78
2023-05-22T09:54:43.228Z,930.80
2023-05-22T09:55:43.273Z,930.82
2023-05-22T09:56:43.247Z,930.83
2023-05-22T09:57:43.173Z,930.84
2023-05-22T09:58:43.170Z,930.85
2023-05-22T09:59:43.157Z,930.85
2023-05-22T10:00:43.166Z,930.83
2023-05-22T10:01:43.172Z,930.83
2023-05-22T10:02:43.258Z,930.83
2023-05-22T10:03:43.239Z,930.84
2023-05-22T10:04:43.144Z,930.86
2023-05-22T10:05:43.120Z,930.89
2023-05-22T10:06:43.097Z,930.92
2023-05-22T10:07:43.144Z,930.93
2023-05-22T10:08:43.114Z,930.94
2023-05-22T10:09:43.020Z,930.94
2023-05-22T10:10:43.166Z,930.94
2023-05-22T10:11:43.060Z,930.94
2023-05-22T10:12:43.045Z,930.96
2023-05-22T10:13:43.069Z,930.98
2023-05-22T10:14:43.080Z,931.01
2023-05-22T10:15:43.007Z,931.03
2023-05-22T10:16:43.029Z,931.03
2023-05-22T10:17:43.011Z,931.05
2023-05-22T10:18:42.971Z,931.09
2023-05-22T10:19:44.609Z,931.13
2023-05-22T10:20:42.992Z,931.18
2023-05-22T10:21:43.641Z,931.20
2023-05-22T10:22:42.975Z,931.21
2023-05-22T10:23:42.909Z,931.21
2023-05-22T10:24:42.941Z,931.20
2023-05-22T10:25:42.841Z,931.19
2023-05-22T10:26:42.895Z,931.19
2023-05-22T10:27:42.872Z,931.19
2023-05-22T10:28:42.891Z,931.20
2023-05-22T10:29:42.873Z,931.20
2023-05-22T10:30:43.101Z,931.21
2023-05-22T10:31:43.400Z,931.23
2023-05-22T10:32:42.908Z,931.24
2023-05-22T10:33:42.860Z,931.24
2023-05-22T10:34:42.804Z,931.22
2023-05-22T10:35:42.799Z,931.20
2023-05-22T10:36:43.604Z,931.16
2023-05-22T10:37:42.800Z,931.13
2023-05-22T10:38:42.803Z,931.09
2023-05-22T10:39:42.724Z,931.08
2023-05-22T10:40:42.715Z,931.07
2023-05-22T10:41:42.722Z,931.07
2023-05-22T10:42:42.728Z,931.08
2023-05-22T10:43:42.662Z,931.10
2023-05-22T10:44:42.774Z,931.12
2023-05-22T10:45:44.704Z,931.13
2023-05-22T10:46:42.714Z,931.14
2023-05-22T10:47:42.691Z,931.15
2023-05-22T10:48:42.627Z,931.17
2023-05-22T10:49:42.730Z,931.20
2023-05-22T10:50:42.834Z,931.22
2023-05-22T10:51:42.644Z,931.26
2023-05-22T10:52:42.614Z,931.27
2023-05-22T10:53:43.946Z,931.30
2023-05-22T10:54:42.580Z,931.31
2023-05-22T10:55:42.665Z,931.33
2023-05-22T10:56:42.573Z,931.34
2023-05-22T10:57:43.396Z,931.33
2023-05-22T10:58:42.546Z,931.32
2023-05-22T10:59:42.594Z,931.32
2023-05-22T11:00:42.762Z,931.30
2023-05-22T11:01:42.522Z,931.30
2023-05-22T11:02:42.583Z,931.30
2023-05-22T11:03:42.666Z,931.31
2023-05-22T11:04:43.173Z,931.33
2023-05-22T11:05:42.486Z,931.35
2023-05-22T11:06:42.716Z,931.37
2023-05-22T11:07:42.444Z,931.38
2023-05-22T11:08:42.366Z,931.37
2023-05-22T11:09:42.411Z,931.38
2023-05-22T11:10:42.520Z,931.38
2023-05-22T11:11:42.536Z,931.39
2023-05-22T11:12:42.391Z,931.38
2023-05-22T11:13:42.440Z,931.38
2023-05-22T11:14:42.390Z,931.40
2023-05-22T11:15:43.341Z,931.43
2023-05-22T11:16:42.438Z,931.46
2023-05-22T11:17:42.440Z,931.49
2023-05-22T11:18:43.262Z,931.51
2023-05-22T11:19:42.481Z,931.54
2023-05-22T11:20:42.628Z,931.57
2023-05-22T11:21:42.300Z,931.61
2023-05-22T11:22:42.299Z,931.65
2023-05-22T11:23:42.418Z,931.69
2023-05-22T11:24:42.275Z,931.71
2023-05-22T11:25:42.327Z,931.72
2023-05-22T11:26:42.285Z,931.72
2023-05-22T11:27:42.408Z,931.72
2023-05-22T11:28:42.374Z,931.74
2023-05-22T11:29:42.203Z,931.75
2023-05-22T11:30:42.386Z,931.75
2023-05-22T11:31:42.304Z,931.76
2023-05-22T11:32:42.281Z,931.75
2023-05-22T11:33:42.201Z,931.72
2023-05-22T11:34:43.178Z,931.72
2023-05-22T11:35:42.216Z,931.72
2023-05-22T11:36:42.253Z,931.72
2023-05-22T11:37:42.233Z,931.74
2023-05-22T11:38:42.099Z,931.75
2023-05-22T11:39:42.140Z,931.77
2023-05-22T11:40:42.353Z,931.77
2023-05-22T11:41:42.159Z,931.76
2023-05-22T11:42:42.157Z,931.77
2023-05-22T11:43:42.056Z,931.78
2023-05-22T11:44:42.077Z,931.80
2023-05-22T11:45:42.082Z,931.83
2023-05-22T11:46:42.031Z,931.86
2023-05-22T11:47:42.112Z,931.88
2023-05-22T11:48:42.026Z,931.89
2023-05-22T11:49:42.011Z,931.91
2023-05-22T11:50:42.798Z,931.94
2023-05-22T11:51:42.017Z,931.92
2023-05-22T11:52:42.018Z,931.94
2023-05-22T11:53:42.030Z,931.93
2023-05-22T11:54:41.997Z,931.95
2023-05-22T11:55:41.933Z,931.97
2023-05-22T11:56:41.940Z,931.96
2023-05-22T11:57:42.044Z,931.97
2023-05-22T11:58:41.851Z,931.97
2023-05-22T11:59:41.976Z,931.96
2023-05-22T12:00:42.109Z,931.96
2023-05-22T12:01:43.126Z,931.95
2023-05-22T12:02:42.514Z,931.94
2023-05-22T12:03:42.012Z,931.94
2023-05-22T12:04:41.914Z,931.95
2023-05-22T12:05:42.007Z,931.96
2023-05-22T12:06:41.820Z,931.96
2023-05-22T12:07:41.811Z,931.97
2023-05-22T12:08:41.910Z,931.97
2023-05-22T12:09:41.919Z,931.97
2023-05-22T12:10:42.008Z,931.97
2023-05-22T12:11:41.848Z,931.96
2023-05-22T12:12:41.805Z,931.95
2023-05-22T12:13:41.775Z,931.94
2023-05-22T12:14:42.664Z,931.93
2023-05-22T12:15:41.755Z,931.91
2023-05-22T12:16:41.856Z,931.91
2023-05-22T12:17:41.902Z,931.90
2023-05-22T12:18:41.699Z,931.90
2023-05-22T12:19:41.673Z,931.91
2023-05-22T12:20:41.729Z,931.90
2023-05-22T12:21:41.696Z,931.91
2023-05-22T12:22:41.709Z,931.90
2023-05-22T12:23:42.639Z,931.88
2023-05-22T12:24:41.611Z,931.88
2023-05-22T12:25:42.182Z,931.89
2023-05-22T12:26:41.636Z,931.89
2023-05-22T12:27:41.642Z,931.89
2023-05-22T12:28:41.554Z,931.90